Time;durP1;ratioP1;P1;durP2;ratioP2;P2;SDS_P1;SDS_P2;PMS_P1;PMS_P2;Temp;Humidity;BMP_temperature;BMP_pressure;BME280_temperature;BME280_humidity;BME280_pressure;Samples;Min_cycle;Max_cycle;Signal;HPM_P1;HPM_P2
2023/03/09 00:01:20;;;;;;;;;;;6.20;99.90;;;;;;5065176;28;19909;-84
2023/03/09 00:03:46;;;;;;;;;;;6.20;99.90;;;;;;5073495;28;19909;-84
2023/03/09 00:06:12;;;;;;;;;;;6.20;99.90;;;;;;5073459;28;19919;-84
2023/03/09 00:08:37;;;;;;;;;;;6.20;99.90;;;;;;5055439;28;19916;-84
2023/03/09 00:11:03;;;;;;;;;;;6.10;99.90;;;;;;5055142;28;20006;-84
2023/03/09 00:13:29;;;;;;;;;;;5.90;99.90;;;;;;5055486;28;19959;-84
2023/03/09 00:15:54;;;;;;;;;;;5.70;99.90;;;;;;5054373;28;19909;-84
2023/03/09 00:18:20;;;;;;;;;;;5.70;99.90;;;;;;5055228;28;19909;-84
2023/03/09 00:20:46;;;;;;;;;;;5.70;99.90;;;;;;5055266;28;20375;-84
2023/03/09 06:32:14;;;;;;;;;;;5.00;99.90;;;;;;5015828;28;19912;-84
2023/03/09 06:34:49;;;;;;;;;;;4.90;99.90;;;;;;5037813;28;20218;-85
2023/03/09 06:37:20;;;;;;;;;;;5.00;99.90;;;;;;5038053;28;19909;-84
2023/03/09 06:40:15;;;;;;;;;;;5.00;99.90;;;;;;5038449;28;19978;-84
2023/03/09 06:42:52;;;;;;;;;;;5.00;99.90;;;;;;5036960;28;20300;-84
2023/03/09 06:45:51;;;;;;;;;;;4.90;99.90;;;;;;5056504;28;20003;-84
2023/03/09 06:48:25;;;;;;;;;;;4.90;99.90;;;;;;5038447;28;19909;-84
2023/03/09 06:51:02;;;;;;;;;;;4.90;99.90;;;;;;5037561;28;19913;-85
2023/03/09 06:53:48;;;;;;;;;;;5.00;99.90;;;;;;5056151;28;19975;-86
2023/03/09 06:56:14;;;;;;;;;;;5.00;99.90;;;;;;5037874;28;19913;-85
2023/03/09 06:58:42;;;;;;;;;;;5.10;99.90;;;;;;5056409;28;19958;-87
2023/03/09 07:01:14;;;;;;;;;;;5.10;99.90;;;;;;5038401;28;19913;-87
2023/03/09 07:03:47;;;;;;;;;;;5.10;99.90;;;;;;5040202;28;19927;-87
2023/03/09 07:06:15;;;;;;;;;;;5.20;99.90;;;;;;5051204;28;19913;-87
2023/03/09 07:08:41;;;;;;;;;;;5.30;99.90;;;;;;5040512;28;20295;-86
2023/03/09 07:11:10;;;;;;;;;;;5.20;99.90;;;;;;5039189;28;19909;-85
2023/03/09 07:23:21;;;;;;;;;;;5.30;92.50;;;;;;5054782;28;19908;-86
2023/03/09 07:25:49;;;;;;;;;;;5.30;94.90;;;;;;5052944;28;20375;-86
2023/03/09 07:28:14;;;;;;;;;;;5.30;97.10;;;;;;5053457;28;19924;-85
2023/03/09 07:30:40;;;;;;;;;;;5.40;96.20;;;;;;5053446;28;19917;-85
2023/03/09 07:33:15;;;;;;;;;;;5.50;93.90;;;;;;5036683;28;20302;-86
2023/03/09 07:35:51;;;;;;;;;;;5.60;92.60;;;;;;5036172;28;19909;-85
2023/03/09 07:38:30;;;;;;;;;;;5.60;89.00;;;;;;5035507;28;20376;-86
2023/03/09 07:41:16;;;;;;;;;;;5.70;89.90;;;;;;5035931;28;20006;-86
2023/03/09 07:44:31;;;;;;;;;;;5.70;88.70;;;;;;5092641;22;20014;-86
2023/03/09 07:47:17;;;;;;;;;;;5.70;85.70;;;;;;5014024;28;19908;-88
2023/03/09 07:49:45;;;;;;;;;;;5.80;87.60;;;;;;5073574;28;19908;-86
2023/03/09 07:52:10;;;;;;;;;;;5.70;79.90;;;;;;5072681;28;19908;-85
2023/03/09 07:55:14;;;;;;;;;;;5.70;87.90;;;;;;5073171;28;19939;-86
2023/03/09 07:58:15;;;;;;;;;;;5.70;86.00;;;;;;5057356;28;19967;-86
2023/03/09 08:04:16;;;;;;;;;;;5.80;88.50;;;;;;5117793;22;20023;-86
2023/03/09 08:10:06;;;;;;;;;;;5.70;72.90;;;;;;5076466;28;19945;-87
2023/03/09 08:12:46;;;;;;;;;;;5.70;73.80;;;;;;5057759;28;20334;-88
2023/03/09 08:15:23;;;;;;;;;;;5.80;90.90;;;;;;5058925;28;19995;-86
2023/03/09 08:17:57;;;;;;;;;;;6.00;92.60;;;;;;5058900;28;19958;-88
2023/03/09 08:20:28;;;;;;;;;;;6.00;89.20;;;;;;5058812;28;19916;-87
2023/03/09 08:22:56;;;;;;;;;;;6.10;91.10;;;;;;5067744;28;19920;-88
2023/03/09 08:25:35;;;;;;;;;;;6.20;73.90;;;;;;5058855;28;20003;-85
2023/03/09 08:28:04;;;;;;;;;;;6.40;77.10;;;;;;5058541;28;19912;-87
2023/03/09 08:30:32;;;;;;;;;;;6.60;74.50;;;;;;5058767;28;19957;-88
2023/03/09 08:32:57;;;;;;;;;;;6.80;58.80;;;;;;5058034;28;19916;-87
2023/03/09 08:35:28;;;;;;;;;;;6.80;55.40;;;;;;5057782;28;19909;-87
2023/03/09 08:37:59;;;;;;;;;;;6.80;49.40;;;;;;5057643;28;19909;-87
2023/03/09 08:40:33;;;;;;;;;;;6.80;47.60;;;;;;5057853;28;19920;-86
2023/03/09 08:43:01;;;;;;;;;;;6.70;50.90;;;;;;5058086;28;20016;-88
2023/03/09 08:45:45;;;;;;;;;;;6.70;54.00;;;;;;5058114;28;19919;-87
2023/03/09 08:48:10;;;;;;;;;;;6.70;65.30;;;;;;5057772;28;20007;-86
2023/03/09 08:53:32;;;;;;;;;;;6.70;68.80;;;;;;5068444;28;19912;-87
2023/03/09 08:55:58;;;;;;;;;;;6.70;74.30;;;;;;5057899;28;19913;-87
2023/03/09 08:58:23;;;;;;;;;;;6.80;71.30;;;;;;5074108;28;20008;-87
2023/03/09 09:00:52;;;;;;;;;;;6.90;66.80;;;;;;5075905;28;19970;-88
2023/03/09 09:03:47;;;;;;;;;;;7.00;60.50;;;;;;5057053;28;19908;-86
2023/03/09 09:09:21;;;;;;;;;;;7.00;58.70;;;;;;5066542;28;19912;-85
2023/03/09 09:11:46;;;;;;;;;;;7.00;60.60;;;;;;5052073;28;19920;-85
2023/03/09 09:14:12;;;;;;;;;;;7.00;58.10;;;;;;5073960;28;19915;-86
2023/03/09 09:16:37;;;;;;;;;;;6.90;54.50;;;;;;5056507;28;20032;-87
2023/03/09 09:19:03;;;;;;;;;;;6.90;54.80;;;;;;5055866;28;20368;-87
2023/03/09 09:21:28;;;;;;;;;;;7.00;59.40;;;;;;5072686;28;19916;-83
2023/03/09 09:23:54;;;;;;;;;;;7.00;58.70;;;;;;5055561;28;19916;-86
2023/03/09 09:26:20;;;;;;;;;;;7.10;59.10;;;;;;5055521;28;19908;-87
2023/03/09 09:28:46;;;;;;;;;;;7.10;54.60;;;;;;5055662;28;20360;-85
2023/03/09 09:31:19;;;;;;;;;;;7.00;61.60;;;;;;5055077;28;19962;-85
2023/03/09 09:33:51;;;;;;;;;;;6.90;60.40;;;;;;5055364;28;20414;-84
2023/03/09 09:36:18;;;;;;;;;;;6.80;60.10;;;;;;5054519;28;19915;-86
2023/03/09 09:41:57;;;;;;;;;;;6.90;78.60;;;;;;5074127;28;19919;-85
2023/03/09 09:44:23;;;;;;;;;;;6.90;84.30;;;;;;5046267;28;20292;-86
2023/03/09 09:46:50;;;;;;;;;;;7.10;93.80;;;;;;5053789;28;19909;-85
2023/03/09 09:49:19;;;;;;;;;;;7.30;85.00;;;;;;5039369;28;20000;-86
2023/03/09 09:51:50;;;;;;;;;;;7.50;64.90;;;;;;5040038;28;19924;-85
2023/03/09 09:54:34;;;;;;;;;;;7.50;53.70;;;;;;5040511;28;19936;-85
2023/03/09 09:57:02;;;;;;;;;;;7.60;50.10;;;;;;5040374;28;19909;-86
2023/03/09 09:59:39;;;;;;;;;;;7.60;32.80;;;;;;5040351;28;19988;-86
2023/03/09 10:02:25;;;;;;;;;;;7.70;45.40;;;;;;5040051;28;20004;-85
2023/03/09 10:05:09;;;;;;;;;;;7.70;44.80;;;;;;5042064;28;19908;-85
2023/03/09 10:07:36;;;;;;;;;;;8.00;36.60;;;;;;5057251;28;19944;-85
2023/03/09 10:10:03;;;;;;;;;;;8.10;22.40;;;;;;5039710;28;20315;-85
2023/03/09 10:12:29;;;;;;;;;;;8.20;27.20;;;;;;5038234;28;19948;-86
2023/03/09 10:14:57;;;;;;;;;;;8.50;26.20;;;;;;5054986;28;19909;-86
2023/03/09 10:17:27;;;;;;;;;;;8.70;16.50;;;;;;5038435;28;20015;-86
2023/03/09 10:20:19;;;;;;;;;;;8.60;4.60;;;;;;5037901;28;19948;-85
2023/03/09 10:22:55;;;;;;;;;;;8.40;2.00;;;;;;5017789;28;19913;-85
2023/03/09 10:25:30;;;;;;;;;;;8.40;7.30;;;;;;5057110;28;19909;-86
2023/03/09 10:31:33;;;;;;;;;;;8.60;1.00;;;;;;5089769;28;19935;-84
2023/03/09 10:34:07;;;;;;;;;;;8.70;1.00;;;;;;5058369;28;19909;-85
2023/03/09 10:36:35;;;;;;;;;;;8.90;1.00;;;;;;5058510;28;19909;-85
2023/03/09 10:39:14;;;;;;;;;;;9.00;1.00;;;;;;5058563;28;19912;-85
2023/03/09 10:41:51;;;;;;;;;;;8.90;1.00;;;;;;5057436;28;20347;-86
2023/03/09 10:44:24;;;;;;;;;;;9.00;1.00;;;;;;5058734;28;19912;-86
2023/03/09 10:47:00;;;;;;;;;;;9.10;1.00;;;;;;5057450;28;20359;-86
2023/03/09 10:49:26;;;;;;;;;;;9.10;1.00;;;;;;5076339;28;20381;-85
2023/03/09 10:52:00;;;;;;;;;;;9.10;1.00;;;;;;5056869;28;19909;-85
2023/03/09 10:54:35;;;;;;;;;;;9.00;1.00;;;;;;5057508;28;19908;-85
2023/03/09 10:57:02;;;;;;;;;;;9.00;1.00;;;;;;5057259;28;19908;-85
2023/03/09 10:59:31;;;;;;;;;;;9.00;1.00;;;;;;5057038;28;19954;-85
2023/03/09 11:01:59;;;;;;;;;;;9.00;1.00;;;;;;5056933;28;19911;-85
2023/03/09 11:04:27;;;;;;;;;;;9.00;1.00;;;;;;5056742;28;19915;-85
2023/03/09 11:06:57;;;;;;;;;;;9.00;1.00;;;;;;5057899;28;20396;-86
2023/03/09 11:09:44;;;;;;;;;;;9.10;1.00;;;;;;5057401;28;19915;-85
2023/03/09 11:12:18;;;;;;;;;;;9.20;1.00;;;;;;5055964;28;19908;-85
2023/03/09 11:14:47;;;;;;;;;;;9.50;1.00;;;;;;5056976;28;19908;-85
2023/03/09 11:17:39;;;;;;;;;;;9.70;1.00;;;;;;5057414;28;20013;-84
2023/03/09 11:20:24;;;;;;;;;;;9.90;1.00;;;;;;5062499;28;20025;-84
2023/03/09 11:23:02;;;;;;;;;;;10.00;1.00;;;;;;5056102;28;19909;-84
2023/03/09 11:25:59;;;;;;;;;;;10.00;1.00;;;;;;5056861;28;19912;-84
2023/03/09 11:28:50;;;;;;;;;;;10.00;1.00;;;;;;5054975;28;19909;-84
2023/03/09 11:31:42;;;;;;;;;;;10.00;1.00;;;;;;5057121;28;20288;-84
2023/03/09 11:34:20;;;;;;;;;;;9.80;1.00;;;;;;5045927;28;20297;-85
2023/03/09 11:37:10;;;;;;;;;;;9.80;1.00;;;;;;5058972;28;19909;-85
2023/03/09 11:39:40;;;;;;;;;;;9.70;1.00;;;;;;5075676;28;19909;-86
2023/03/09 11:42:16;;;;;;;;;;;9.60;1.00;;;;;;5056201;28;19916;-84
2023/03/09 11:44:44;;;;;;;;;;;9.60;1.00;;;;;;5058820;28;19954;-85
2023/03/09 11:47:33;;;;;;;;;;;9.70;1.00;;;;;;5057311;28;20371;-84
2023/03/09 11:50:06;;;;;;;;;;;9.80;1.00;;;;;;5056859;28;19908;-85
2023/03/09 11:52:37;;;;;;;;;;;9.90;1.00;;;;;;5055301;28;19924;-88
2023/03/09 11:55:12;;;;;;;;;;;9.80;1.00;;;;;;5063004;28;19931;-88
2023/03/09 11:57:54;;;;;;;;;;;9.90;1.00;;;;;;5047869;28;19919;-89
2023/03/09 12:13:33;;;;;;;;;;;;;;;;;;;;;
2023/03/09 12:16:26;;;;;;;;;;;10.00;1.00;;;;;;4998029;28;19928;-88
2023/03/09 12:28:18;;;;;;;;;;;10.40;1.00;;;;;;5089526;23;19935;-85
2023/03/09 12:30:50;;;;;;;;;;;10.50;1.00;;;;;;5070929;28;19912;-86
2023/03/09 12:33:36;;;;;;;;;;;10.60;1.00;;;;;;5058502;28;20379;-86
2023/03/09 12:36:01;;;;;;;;;;;10.70;1.00;;;;;;5054720;28;20410;-85
2023/03/09 13:04:24;;;;;;;;;;;9.20;13.60;;;;;;5073317;28;19928;-81
2023/03/09 13:06:50;;;;;;;;;;;9.20;25.10;;;;;;5056599;28;19913;-82
2023/03/09 13:09:18;;;;;;;;;;;9.10;23.40;;;;;;5056425;28;19908;-81
2023/03/09 13:12:11;;;;;;;;;;;9.20;29.50;;;;;;5074019;28;19919;-81
2023/03/09 13:21:13;;;;;;;;;;;9.80;16.30;;;;;;5075180;28;19962;-82
2023/03/09 13:23:51;;;;;;;;;;;9.80;19.00;;;;;;5054448;28;19968;-81
2023/03/09 13:26:25;;;;;;;;;;;9.80;19.20;;;;;;5056468;28;19935;-82
2023/03/09 13:32:02;;;;;;;;;;;9.80;23.20;;;;;;5042410;28;19919;-82
2023/03/09 14:25:27;;;;;;;;;;;10.40;69.40;;;;;;5928226;22;19997;-84
2023/03/09 14:27:53;;;;;;;;;;;10.50;78.10;;;;;;5071732;28;19912;-82
2023/03/09 14:30:30;;;;;;;;;;;10.50;73.70;;;;;;5056359;28;20287;-83
2023/03/09 14:32:56;;;;;;;;;;;10.50;76.00;;;;;;5054746;28;19908;-84
2023/03/09 14:35:23;;;;;;;;;;;10.40;70.50;;;;;;5056577;28;19970;-83
2023/03/09 14:37:52;;;;;;;;;;;10.30;70.50;;;;;;5059421;28;19931;-83
2023/03/09 14:40:26;;;;;;;;;;;9.90;93.50;;;;;;5058880;28;19909;-82
2023/03/09 14:42:51;;;;;;;;;;;9.90;99.90;;;;;;5057564;28;20033;-83
2023/03/09 14:45:21;;;;;;;;;;;10.00;99.90;;;;;;5076131;28;19978;-83
2023/03/09 14:47:54;;;;;;;;;;;10.30;99.90;;;;;;5058677;28;19909;-82
2023/03/09 14:50:19;;;;;;;;;;;10.70;99.90;;;;;;5062155;28;19913;-83
2023/03/09 14:52:45;;;;;;;;;;;11.10;99.90;;;;;;5077457;28;19909;-84
2023/03/09 14:55:15;;;;;;;;;;;11.50;81.00;;;;;;5059743;28;19914;-83
2023/03/09 14:57:40;;;;;;;;;;;11.80;42.10;;;;;;5075583;28;20379;-84
2023/03/09 15:00:06;;;;;;;;;;;12.20;34.20;;;;;;5058453;28;19908;-83
2023/03/09 15:02:33;;;;;;;;;;;12.40;19.50;;;;;;5043664;28;19920;-82
2023/03/09 15:04:59;;;;;;;;;;;12.60;6.40;;;;;;5058926;28;19962;-83
2023/03/09 15:07:25;;;;;;;;;;;12.70;1.00;;;;;;5058693;28;19908;-84
2023/03/09 15:09:50;;;;;;;;;;;12.80;1.00;;;;;;5056728;28;19909;-84
2023/03/09 15:12:20;;;;;;;;;;;12.90;1.00;;;;;;5058324;28;20003;-83
2023/03/09 15:14:48;;;;;;;;;;;12.80;1.00;;;;;;5075646;28;19913;-83
2023/03/09 15:17:16;;;;;;;;;;;12.70;1.00;;;;;;5060485;28;19908;-83
2023/03/09 15:19:41;;;;;;;;;;;12.70;1.00;;;;;;5056440;28;19909;-82
2023/03/09 15:22:10;;;;;;;;;;;12.60;1.00;;;;;;5060206;28;19962;-82
2023/03/09 15:24:35;;;;;;;;;;;12.60;1.00;;;;;;5057162;28;19954;-80
2023/03/09 15:27:01;;;;;;;;;;;12.50;1.00;;;;;;5058191;28;19920;-82
2023/03/09 15:29:26;;;;;;;;;;;12.40;1.00;;;;;;5075077;28;19916;-81
2023/03/09 15:31:52;;;;;;;;;;;12.30;5.90;;;;;;5061308;28;19939;-82
2023/03/09 15:34:17;;;;;;;;;;;12.20;11.40;;;;;;5058675;28;19908;-81
2023/03/09 15:36:43;;;;;;;;;;;12.20;11.70;;;;;;5076321;28;19908;-81
2023/03/09 15:39:08;;;;;;;;;;;12.00;15.30;;;;;;5075695;28;19908;-82
2023/03/09 15:41:34;;;;;;;;;;;11.90;21.50;;;;;;5075788;28;19908;-81
2023/03/09 15:43:59;;;;;;;;;;;11.70;29.50;;;;;;5079300;28;19924;-82
2023/03/09 15:46:25;;;;;;;;;;;11.60;39.00;;;;;;5052602;28;19913;-82
2023/03/09 15:48:51;;;;;;;;;;;11.50;48.50;;;;;;5058941;28;20453;-80
2023/03/09 15:51:17;;;;;;;;;;;11.50;58.00;;;;;;5059413;28;19912;-82
2023/03/09 15:53:42;;;;;;;;;;;11.40;64.60;;;;;;5077447;28;19958;-82
2023/03/09 15:56:08;;;;;;;;;;;11.50;79.10;;;;;;5075598;28;19909;-83
2023/03/09 16:14:26;;;;;;;;;;;11.80;79.40;;;;;;5100933;23;19924;-83
2023/03/09 16:16:51;;;;;;;;;;;11.90;47.80;;;;;;5075790;28;19912;-83
2023/03/09 16:19:33;;;;;;;;;;;;;;;;;;;;;
2023/03/09 16:21:59;;;;;;;;;;;12.10;30.60;;;;;;5075602;28;20397;-83
2023/03/09 16:24:24;;;;;;;;;;;12.10;16.50;;;;;;5058689;28;19944;-84
2023/03/09 16:26:50;;;;;;;;;;;12.20;21.70;;;;;;5058232;28;19918;-84
2023/03/09 16:29:22;;;;;;;;;;;12.20;5.50;;;;;;5058622;28;19959;-84
2023/03/09 16:31:47;;;;;;;;;;;12.20;4.80;;;;;;5076494;28;19919;-84
2023/03/09 16:34:13;;;;;;;;;;;12.20;1.00;;;;;;5057878;28;19978;-83
2023/03/09 16:36:38;;;;;;;;;;;12.20;1.00;;;;;;5058167;28;19938;-83
2023/03/09 16:39:04;;;;;;;;;;;12.20;5.60;;;;;;5057404;28;19952;-84
2023/03/09 16:41:29;;;;;;;;;;;12.20;1.00;;;;;;5056943;28;19919;-84
2023/03/09 16:43:55;;;;;;;;;;;12.10;1.00;;;;;;5058150;28;20358;-83
2023/03/09 16:46:22;;;;;;;;;;;12.20;1.00;;;;;;5077051;28;19912;-84
2023/03/09 16:48:48;;;;;;;;;;;12.20;1.00;;;;;;5076178;28;19999;-84
2023/03/09 16:51:18;;;;;;;;;;;12.20;1.00;;;;;;5057417;28;19952;-84
2023/03/09 16:53:44;;;;;;;;;;;12.20;1.00;;;;;;5057900;28;20355;-84
2023/03/09 16:56:09;;;;;;;;;;;12.20;1.00;;;;;;5057264;28;19908;-84
2023/03/09 16:58:35;;;;;;;;;;;12.20;1.00;;;;;;5057202;28;19909;-84
2023/03/09 17:01:01;;;;;;;;;;;12.20;1.00;;;;;;5056313;28;20000;-84
2023/03/09 17:03:27;;;;;;;;;;;12.20;1.00;;;;;;5057332;28;19912;-83
2023/03/09 17:05:53;;;;;;;;;;;12.10;1.30;;;;;;5075407;28;19916;-84
2023/03/09 17:08:19;;;;;;;;;;;12.10;1.00;;;;;;5056669;28;20291;-84
2023/03/09 17:10:45;;;;;;;;;;;12.00;1.00;;;;;;5057260;28;19920;-84
2023/03/09 17:13:11;;;;;;;;;;;11.90;1.40;;;;;;5057717;28;19954;-84
2023/03/09 17:15:36;;;;;;;;;;;11.80;9.90;;;;;;5062769;28;19916;-85
2023/03/09 17:18:02;;;;;;;;;;;11.80;22.60;;;;;;5057515;28;19909;-83
2023/03/09 17:20:28;;;;;;;;;;;11.70;23.00;;;;;;5056889;28;20261;-83
2023/03/09 17:22:54;;;;;;;;;;;11.60;26.20;;;;;;5056184;28;19913;-82
2023/03/09 17:25:20;;;;;;;;;;;11.50;27.90;;;;;;5056835;28;19998;-83
2023/03/09 17:27:46;;;;;;;;;;;11.50;26.10;;;;;;5074586;28;19908;-83
2023/03/09 17:30:13;;;;;;;;;;;11.40;28.30;;;;;;5055360;28;20399;-85
2023/03/09 17:32:38;;;;;;;;;;;11.30;36.30;;;;;;5056024;28;19912;-84
2023/03/09 17:35:04;;;;;;;;;;;11.30;33.10;;;;;;5056396;28;20862;-83
2023/03/09 17:37:30;;;;;;;;;;;11.20;37.20;;;;;;5074255;28;19913;-84
2023/03/09 17:39:56;;;;;;;;;;;11.20;41.60;;;;;;5058647;28;19909;-82
2023/03/09 17:42:21;;;;;;;;;;;11.20;39.30;;;;;;5057977;28;19936;-83
2023/03/09 17:44:47;;;;;;;;;;;11.20;43.90;;;;;;5076327;28;19916;-82
2023/03/09 17:47:12;;;;;;;;;;;11.20;47.00;;;;;;5076657;28;19916;-82
2023/03/09 17:49:38;;;;;;;;;;;11.30;45.70;;;;;;5055941;28;20007;-85
2023/03/09 17:52:03;;;;;;;;;;;11.30;43.20;;;;;;5057851;28;19912;-83
2023/03/09 17:54:29;;;;;;;;;;;11.30;35.80;;;;;;5057870;28;19932;-83
2023/03/09 17:56:55;;;;;;;;;;;11.30;37.10;;;;;;5074907;28;19960;-84
2023/03/09 17:59:21;;;;;;;;;;;11.30;35.90;;;;;;5056666;28;19938;-85
2023/03/09 18:01:47;;;;;;;;;;;11.30;35.10;;;;;;5054158;28;19912;-86
2023/03/09 18:04:12;;;;;;;;;;;11.30;32.90;;;;;;5056403;28;19978;-83
2023/03/09 18:06:38;;;;;;;;;;;11.30;34.00;;;;;;5057350;28;20014;-83
2023/03/09 18:09:04;;;;;;;;;;;11.30;38.10;;;;;;5076865;28;19961;-83
2023/03/09 18:11:32;;;;;;;;;;;11.30;31.40;;;;;;5060461;28;19964;-83
2023/03/09 18:13:58;;;;;;;;;;;11.30;38.00;;;;;;5060619;28;19925;-84
2023/03/09 18:16:24;;;;;;;;;;;11.20;41.10;;;;;;5057252;28;19999;-86
2023/03/09 18:23:55;;;;;;;;;;;11.20;40.80;;;;;;5055894;28;19931;-84
2023/03/09 18:29:53;;;;;;;;;;;11.20;37.90;;;;;;5107605;22;19978;-82
2023/03/09 18:32:23;;;;;;;;;;;11.30;39.90;;;;;;5074644;28;19958;-84
2023/03/09 18:35:01;;;;;;;;;;;11.30;30.30;;;;;;5058727;28;19935;-85
2023/03/09 18:37:41;;;;;;;;;;;11.30;36.10;;;;;;5057761;28;19909;-82
2023/03/09 18:40:08;;;;;;;;;;;11.30;38.10;;;;;;5034536;28;19956;-83
2023/03/09 18:42:34;;;;;;;;;;;11.30;30.10;;;;;;5035625;28;20381;-84
2023/03/09 18:44:59;;;;;;;;;;;11.20;42.80;;;;;;5036079;28;19916;-83
2023/03/09 18:47:25;;;;;;;;;;;11.20;41.20;;;;;;5036071;28;19924;-84
2023/03/09 18:49:51;;;;;;;;;;;11.20;43.10;;;;;;5036574;28;19916;-83
2023/03/09 18:52:17;;;;;;;;;;;11.30;48.50;;;;;;5034729;28;19916;-85
2023/03/09 18:54:43;;;;;;;;;;;11.20;46.60;;;;;;5018458;28;20292;-83
2023/03/09 18:57:09;;;;;;;;;;;11.30;45.70;;;;;;5036432;28;19909;-84
2023/03/09 18:59:34;;;;;;;;;;;11.30;49.40;;;;;;5034832;28;20277;-83
2023/03/09 19:02:01;;;;;;;;;;;11.20;52.30;;;;;;5034857;28;19909;-85
2023/03/09 19:04:27;;;;;;;;;;;11.20;75.50;;;;;;5034511;28;19909;-84
2023/03/09 19:06:52;;;;;;;;;;;11.10;89.30;;;;;;5034629;28;19916;-84
2023/03/09 19:09:18;;;;;;;;;;;11.10;99.10;;;;;;5034444;28;19957;-85
2023/03/09 19:11:43;;;;;;;;;;;11.00;99.90;;;;;;5035404;28;19927;-84
2023/03/09 19:14:09;;;;;;;;;;;11.00;99.90;;;;;;5034382;28;19955;-84
2023/03/09 19:16:35;;;;;;;;;;;11.00;99.90;;;;;;5034756;28;20361;-83
2023/03/09 19:19:01;;;;;;;;;;;10.90;99.90;;;;;;5034022;28;20003;-84
2023/03/09 19:21:30;;;;;;;;;;;10.90;99.90;;;;;;5033143;28;20391;-84
2023/03/09 19:23:56;;;;;;;;;;;10.90;99.90;;;;;;5033945;28;19913;-83
2023/03/09 19:26:22;;;;;;;;;;;10.90;99.90;;;;;;5034010;28;19913;-84
2023/03/09 19:28:48;;;;;;;;;;;10.90;99.90;;;;;;5035075;28;19924;-84
2023/03/09 19:31:18;;;;;;;;;;;10.80;99.90;;;;;;5033626;28;19913;-83
2023/03/09 19:33:45;;;;;;;;;;;10.80;99.90;;;;;;5034988;28;19909;-85
2023/03/09 19:36:16;;;;;;;;;;;10.80;99.90;;;;;;5033572;28;19909;-84
2023/03/09 19:38:41;;;;;;;;;;;10.80;99.90;;;;;;5033508;28;20379;-85
2023/03/09 19:41:08;;;;;;;;;;;10.80;99.90;;;;;;5034683;28;19909;-85
2023/03/09 19:43:34;;;;;;;;;;;10.70;99.90;;;;;;5035288;28;19909;-84
2023/03/09 19:46:08;;;;;;;;;;;10.70;99.90;;;;;;5033346;28;19948;-85
2023/03/09 19:48:34;;;;;;;;;;;10.70;99.90;;;;;;5033098;28;19963;-84
2023/03/09 19:51:05;;;;;;;;;;;10.70;99.90;;;;;;5034255;28;19913;-84
2023/03/09 19:53:30;;;;;;;;;;;10.70;99.90;;;;;;5033594;28;20273;-85
2023/03/09 19:56:06;;;;;;;;;;;10.70;99.90;;;;;;5034801;28;19913;-85
2023/03/09 19:58:31;;;;;;;;;;;10.70;99.90;;;;;;5033047;28;19992;-85
2023/03/09 20:00:57;;;;;;;;;;;10.70;99.90;;;;;;5039544;28;19936;-85
2023/03/09 20:03:22;;;;;;;;;;;10.70;99.90;;;;;;5044418;28;19969;-86
2023/03/09 20:05:48;;;;;;;;;;;10.80;99.90;;;;;;5042433;28;19916;-85
2023/03/09 20:08:13;;;;;;;;;;;10.80;99.90;;;;;;5039443;28;19916;-85
2023/03/09 20:10:40;;;;;;;;;;;10.80;99.90;;;;;;5018450;28;20003;-85
2023/03/09 20:13:06;;;;;;;;;;;10.80;99.90;;;;;;5033037;28;19909;-86
2023/03/09 20:15:32;;;;;;;;;;;10.80;99.90;;;;;;5032982;28;20403;-84
2023/03/09 20:17:58;;;;;;;;;;;10.80;99.90;;;;;;5033046;28;20017;-85
2023/03/09 20:20:24;;;;;;;;;;;10.80;99.90;;;;;;5032828;28;20400;-86
2023/03/09 20:22:49;;;;;;;;;;;10.80;99.90;;;;;;5032458;28;19909;-86
2023/03/09 20:25:15;;;;;;;;;;;10.70;99.90;;;;;;5033791;28;19916;-85
2023/03/09 20:28:02;;;;;;;;;;;10.70;99.90;;;;;;5106342;22;20769;-85
2023/03/09 20:31:02;;;;;;;;;;;;;;;;;;;;;
2023/03/09 20:56:23;;;;;;;;;;;10.60;99.90;;;;;;4953446;29;19968;-84
2023/03/09 21:09:18;;;;;;;;;;;10.70;99.90;;;;;;4933117;29;19999;-84
2023/03/09 21:18:48;;;;;;;;;;;10.80;99.90;;;;;;4952665;28;19911;-84
2023/03/09 21:21:31;;;;;;;;;;;10.70;99.90;;;;;;5011364;28;20488;-84
2023/03/09 21:32:57;;;;;;;;;;;10.80;99.90;;;;;;5045841;28;19925;-85
2023/03/09 21:38:40;;;;;;;;;;;10.80;99.90;;;;;;5080862;22;19979;-86
2023/03/09 21:41:08;;;;;;;;;;;10.80;99.90;;;;;;5068602;28;20407;-84
